Gorch Fock — DRAX — position and weather

sailwx.info

Track history (hours):
 
Tides and Currents Weather Stations Pressure Air Temp Water Temp Dewpoint Dewpoint Depression Visibility Wind Speed Wind Dir Waves Ship Positions

Gorch Fock (Germany)

Ship's website: http://www.marine.de/01DB070000000001/CurrentBaseLink/W2698K4S188INFODE

Last reported at 2014-Aug-11 10:33 UTC. Time now 2014-Sep-01 13:57 UTC.
Position N 54°29' E 011°36'.
Warning: this ship's position is 21 days out of date.

Length 89 m; draft 5.4 m.

Type: Sailing vessel. MMSI: 211210280.

Date/timePositionNaut miles runAvg speedWind from/ knotsBaromVisibWave heightAir tempDewpointWater temp
2014-Aug-11 10:33N 54°29' E 011°36'9 9.4
2014-Aug-11 09:33N 54°23' E 011°48'10 9.5
2014-Aug-11 08:33N 54°16' E 011°60'6 6.0
2014-Aug-11 07:31N 54°11' E 012°06'0 0.0
2014-Aug-11 06:31N 54°11' E 012°06'0 0.0
2014-Aug-11 05:31N 54°11' E 012°06'0 0.0
2014-Aug-11 04:31N 54°11' E 012°06'0 0.0
2014-Aug-11 03:31N 54°11' E 012°06'0 0.0
2014-Aug-11 02:28N 54°11' E 012°06'0 0.0
2014-Aug-11 01:31N 54°11' E 012°06'0 0.0
2014-Aug-11 00:31N 54°11' E 012°06'0 0.0
2014-Aug-10 23:28N 54°11' E 012°06'0 0.0
2014-Aug-10 22:28N 54°11' E 012°06'0 0.0
2014-Aug-10 21:22N 54°11' E 012°06'0 0.0
2014-Aug-10 20:28N 54°11' E 012°06'0 0.0
2014-Aug-10 19:31N 54°11' E 012°06'0 0.0
2014-Aug-10 18:28N 54°11' E 012°06'0 0.0
2014-Aug-10 17:31N 54°11' E 012°06'0 0.0
2014-Aug-10 16:31N 54°11' E 012°05'0 0.0
2014-Aug-10 15:28N 54°11' E 012°06'0 0.0
2014-Aug-10 14:28N 54°11' E 012°06'0 0.0
2014-Aug-10 13:31N 54°11' E 012°06'0 0.0
2014-Aug-10 12:31N 54°11' E 012°06'0 0.0
2014-Aug-10 11:28N 54°11' E 012°06'0 0.0
2014-Aug-10 10:31N 54°11' E 012°06'0 0.0
2014-Aug-10 09:31N 54°11' E 012°06'0 0.0
2014-Aug-10 08:22N 54°11' E 012°06'0 0.0
2014-Aug-10 07:28N 54°11' E 012°05'0 0.0
2014-Aug-10 06:25N 54°11' E 012°06'0 0.0
2014-Aug-10 05:31N 54°11' E 012°06'0 0.0
2014-Aug-10 04:31N 54°11' E 012°06'0 0.0
2014-Aug-10 03:31N 54°11' E 012°06'0 0.0
2014-Aug-10 02:31N 54°11' E 012°06'0 0.0
2014-Aug-10 01:31N 54°11' E 012°06'0 0.0
2014-Aug-10 00:31N 54°11' E 012°06'0 0.0
2014-Aug-09 23:31N 54°11' E 012°06'0 0.0
2014-Aug-09 22:31N 54°11' E 012°06'0 0.0
2014-Aug-09 21:31N 54°11' E 012°06'0 0.0
2014-Aug-09 20:31N 54°11' E 012°06'0 0.0
2014-Aug-09 19:31N 54°11' E 012°05'0 0.0
2014-Aug-09 18:31N 54°11' E 012°06'0 0.0
2014-Aug-09 17:31N 54°11' E 012°06'0 0.0
2014-Aug-09 16:31N 54°11' E 012°06'0 0.0
2014-Aug-09 15:31N 54°11' E 012°06'0 0.0
2014-Aug-09 14:31N 54°11' E 012°06'0 0.0
2014-Aug-09 13:31N 54°11' E 012°06'0 0.0
2014-Aug-09 12:28N 54°11' E 012°06'5 5.1
2014-Aug-09 11:34N 54°15' E 012°02'5 4.6
2014-Aug-09 10:34N 54°19' E 011°59'6 5.7
2014-Aug-09 09:33N 54°14' E 012°03'4 3.4
2014-Aug-09 08:31N 54°11' E 012°06'0 0.0
2014-Aug-09 07:31N 54°11' E 012°06'0 0.0
2014-Aug-09 06:31N 54°11' E 012°06'0 0.0
2014-Aug-09 05:31N 54°11' E 012°06'0 0.0
2014-Aug-09 04:31N 54°11' E 012°06'0 0.0
2014-Aug-09 03:31N 54°11' E 012°06'0 0.0
2014-Aug-09 02:31N 54°11' E 012°06'0 0.0
2014-Aug-09 01:28N 54°11' E 012°06'0 0.0
2014-Aug-09 00:31N 54°11' E 012°06'0 0.0
2014-Aug-08 23:31N 54°11' E 012°06'0 0.0
2014-Aug-08 22:31N 54°11' E 012°06'0 0.0
2014-Aug-08 21:31N 54°11' E 012°06'0 0.0
2014-Aug-08 20:31N 54°11' E 012°06'0 0.0
2014-Aug-08 19:31N 54°11' E 012°06'0 0.0
2014-Aug-08 18:31N 54°11' E 012°06'0 0.0
2014-Aug-08 17:31N 54°11' E 012°06'0 0.0
2014-Aug-08 16:31N 54°11' E 012°06'0 0.0
2014-Aug-08 15:31N 54°11' E 012°06'0 0.0
2014-Aug-08 14:31N 54°11' E 012°06'0 0.0
2014-Aug-08 13:31N 54°11' E 012°06'0 0.0
2014-Aug-08 12:31N 54°11' E 012°06'0 0.0
2014-Aug-08 11:31N 54°11' E 012°06'0 0.0
2014-Aug-08 10:31N 54°11' E 012°06'0 0.0
2014-Aug-08 09:31N 54°11' E 012°06'0 0.0
2014-Aug-08 08:31N 54°11' E 012°06'0 0.0
2014-Aug-08 07:31N 54°11' E 012°06'0 0.0
2014-Aug-08 06:31N 54°11' E 012°06'0 0.0
2014-Aug-08 05:31N 54°11' E 012°06'0 0.0
2014-Aug-08 04:31N 54°11' E 012°06'0 0.0
2014-Aug-08 03:31N 54°11' E 012°06'0 0.0
2014-Aug-08 02:25N 54°11' E 012°06'0 0.0
2014-Aug-08 01:31N 54°11' E 012°06'0 0.0
2014-Aug-08 00:31N 54°11' E 012°06'0 0.0
2014-Aug-07 23:31N 54°11' E 012°05'0 0.0
2014-Aug-07 22:31N 54°11' E 012°06'0 0.0
2014-Aug-07 21:25N 54°11' E 012°06'0 0.0
2014-Aug-07 20:31N 54°11' E 012°06'0 0.0
2014-Aug-07 19:31N 54°11' E 012°05'0 0.0
2014-Aug-07 18:28N 54°11' E 012°06'0 0.0
2014-Aug-07 17:31N 54°11' E 012°06'0 0.0
2014-Aug-07 16:31N 54°11' E 012°06'0 0.0
2014-Aug-07 15:31N 54°11' E 012°06'0 0.0
2014-Aug-07 14:31N 54°11' E 012°06'0 0.0
2014-Aug-07 13:25N 54°11' E 012°06'0 0.0
2014-Aug-07 12:31N 54°11' E 012°06'0 0.0
2014-Aug-07 10:31N 54°11' E 012°06'0 0.0
2014-Aug-07 09:31N 54°11' E 012°06'0 0.0
2014-Aug-07 08:31N 54°11' E 012°06'0 0.0
2014-Aug-07 07:31N 54°11' E 012°06'0 0.0
2014-Aug-07 06:31N 54°11' E 012°05'0 0.0
2014-Aug-07 05:28N 54°11' E 012°05'0 0.0
2014-Aug-07 04:31N 54°11' E 012°06'0 0.0
2014-Aug-07 03:31N 54°11' E 012°06'0 0.0
2014-Aug-07 02:31N 54°11' E 012°06'0 0.0
2014-Aug-07 01:28N 54°11' E 012°06'0 0.0
2014-Aug-07 00:31N 54°11' E 012°06'0 0.0
2014-Aug-06 23:31N 54°11' E 012°05'0 0.0
2014-Aug-06 22:31N 54°11' E 012°06'0 0.0
2014-Aug-06 21:31N 54°11' E 012°06'0 0.0
2014-Aug-06 20:25N 54°11' E 012°06'0 0.0
2014-Aug-06 19:31N 54°11' E 012°06'0 0.0
2014-Aug-06 18:31N 54°11' E 012°06'0 0.0
2014-Aug-06 17:31N 54°11' E 012°06'0 0.0
2014-Aug-06 16:28N 54°11' E 012°06'0 0.0
2014-Aug-06 15:31N 54°11' E 012°06'0 0.0
2014-Aug-06 14:25N 54°11' E 012°06'0 0.0
2014-Aug-06 13:28N 54°11' E 012°06'0 0.0
2014-Aug-06 12:31N 54°11' E 012°06'0 0.0
2014-Aug-06 11:31N 54°11' E 012°05'0 0.0
2014-Aug-06 10:25N 54°11' E 012°06'0 0.0
2014-Aug-06 09:31N 54°11' E 012°06'0 0.0
2014-Aug-06 08:31N 54°11' E 012°06'0 0.0
2014-Aug-06 07:31N 54°11' E 012°06'0 0.0
2014-Aug-06 06:31N 54°11' E 012°06'0 0.0
2014-Aug-06 05:31N 54°11' E 012°06'0 0.0
2014-Aug-06 04:31N 54°11' E 012°06'0 0.0
2014-Aug-06 03:31N 54°11' E 012°06'0 0.0
2014-Aug-06 02:28N 54°11' E 012°06'0 0.0
2014-Aug-06 01:28N 54°11' E 012°06'0 0.0
2014-Aug-06 00:31N 54°11' E 012°06'0 0.0
2014-Aug-05 23:31N 54°11' E 012°06'0 0.0
2014-Aug-05 22:31N 54°11' E 012°06'0 0.0
2014-Aug-05 21:31N 54°11' E 012°06'0 0.0
2014-Aug-05 20:28N 54°11' E 012°06'0 0.0
2014-Aug-05 19:31N 54°11' E 012°06'0 0.0
2014-Aug-05 18:31N 54°11' E 012°06'0 0.0
2014-Aug-05 17:31N 54°11' E 012°06'0 0.3
2014-Aug-05 16:34N 54°10' E 012°06'5 5.2
2014-Aug-05 15:33N 54°14' E 011°60'9 9.3
2014-Aug-05 14:33N 54°19' E 011°46'57 1.8
2014-Aug-04 06:26N 54°21' E 010°09'0 0.0
2014-Aug-04 02:29N 54°21' E 010°09'19 0.5
2014-Aug-02 13:33N 54°41' E 010°11'6 6.4
2014-Aug-02 12:33N 54°46' E 010°15'6 6.2
2014-Aug-02 11:33N 54°46' E 010°05'8 8.1
2014-Aug-02 10:33N 54°50' E 009°52'8 7.7
2014-Aug-02 09:33N 54°51' E 009°39'4 3.7
2014-Aug-02 08:33N 54°52' E 009°33'  
Track history (hours):
 
Tides and Currents Weather Stations Pressure Air Temp Water Temp Dewpoint Dewpoint Depression Visibility Wind Speed Wind Dir Waves Ship Positions

Gorch Fock (Germany)

Ship's website: http://www.marine.de/01DB070000000001/CurrentBaseLink/W2698K4S188INFODE

Last reported at 2014-Aug-11 10:33 UTC. Time now 2014-Sep-01 13:57 UTC.
Position N 54°29' E 011°36'.
Warning: this ship's position is 21 days out of date.

Length 89 m; draft 5.4 m.

Type: Sailing vessel. MMSI: 211210280.

Date/timePositionNaut miles runAvg speedWind from/ knotsBaromVisibWave heightAir tempDewpointWater temp
2014-Aug-11 10:33N 54°29' E 011°36'9 9.4
2014-Aug-11 09:33N 54°23' E 011°48'10 9.5
2014-Aug-11 08:33N 54°16' E 011°60'6 6.0
2014-Aug-11 07:31N 54°11' E 012°06'0 0.0
2014-Aug-11 06:31N 54°11' E 012°06'0 0.0
2014-Aug-11 05:31N 54°11' E 012°06'0 0.0
2014-Aug-11 04:31N 54°11' E 012°06'0 0.0
2014-Aug-11 03:31N 54°11' E 012°06'0 0.0
2014-Aug-11 02:28N 54°11' E 012°06'0 0.0
2014-Aug-11 01:31N 54°11' E 012°06'0 0.0
2014-Aug-11 00:31N 54°11' E 012°06'0 0.0
2014-Aug-10 23:28N 54°11' E 012°06'0 0.0
2014-Aug-10 22:28N 54°11' E 012°06'0 0.0
2014-Aug-10 21:22N 54°11' E 012°06'0 0.0
2014-Aug-10 20:28N 54°11' E 012°06'0 0.0
2014-Aug-10 19:31N 54°11' E 012°06'0 0.0
2014-Aug-10 18:28N 54°11' E 012°06'0 0.0
2014-Aug-10 17:31N 54°11' E 012°06'0 0.0
2014-Aug-10 16:31N 54°11' E 012°05'0 0.0
2014-Aug-10 15:28N 54°11' E 012°06'0 0.0
2014-Aug-10 14:28N 54°11' E 012°06'0 0.0
2014-Aug-10 13:31N 54°11' E 012°06'0 0.0
2014-Aug-10 12:31N 54°11' E 012°06'0 0.0
2014-Aug-10 11:28N 54°11' E 012°06'0 0.0
2014-Aug-10 10:31N 54°11' E 012°06'0 0.0
2014-Aug-10 09:31N 54°11' E 012°06'0 0.0
2014-Aug-10 08:22N 54°11' E 012°06'0 0.0
2014-Aug-10 07:28N 54°11' E 012°05'0 0.0
2014-Aug-10 06:25N 54°11' E 012°06'0 0.0
2014-Aug-10 05:31N 54°11' E 012°06'0 0.0
2014-Aug-10 04:31N 54°11' E 012°06'0 0.0
2014-Aug-10 03:31N 54°11' E 012°06'0 0.0
2014-Aug-10 02:31N 54°11' E 012°06'0 0.0
2014-Aug-10 01:31N 54°11' E 012°06'0 0.0
2014-Aug-10 00:31N 54°11' E 012°06'0 0.0
2014-Aug-09 23:31N 54°11' E 012°06'0 0.0
2014-Aug-09 22:31N 54°11' E 012°06'0 0.0
2014-Aug-09 21:31N 54°11' E 012°06'0 0.0
2014-Aug-09 20:31N 54°11' E 012°06'0 0.0
2014-Aug-09 19:31N 54°11' E 012°05'0 0.0
2014-Aug-09 18:31N 54°11' E 012°06'0 0.0
2014-Aug-09 17:31N 54°11' E 012°06'0 0.0
2014-Aug-09 16:31N 54°11' E 012°06'0 0.0
2014-Aug-09 15:31N 54°11' E 012°06'0 0.0
2014-Aug-09 14:31N 54°11' E 012°06'0 0.0
2014-Aug-09 13:31N 54°11' E 012°06'0 0.0
2014-Aug-09 12:28N 54°11' E 012°06'5 5.1
2014-Aug-09 11:34N 54°15' E 012°02'5 4.6
2014-Aug-09 10:34N 54°19' E 011°59'6 5.7
2014-Aug-09 09:33N 54°14' E 012°03'4 3.4
2014-Aug-09 08:31N 54°11' E 012°06'0 0.0
2014-Aug-09 07:31N 54°11' E 012°06'0 0.0
2014-Aug-09 06:31N 54°11' E 012°06'0 0.0
2014-Aug-09 05:31N 54°11' E 012°06'0 0.0
2014-Aug-09 04:31N 54°11' E 012°06'0 0.0
2014-Aug-09 03:31N 54°11' E 012°06'0 0.0
2014-Aug-09 02:31N 54°11' E 012°06'0 0.0
2014-Aug-09 01:28N 54°11' E 012°06'0 0.0
2014-Aug-09 00:31N 54°11' E 012°06'0 0.0
2014-Aug-08 23:31N 54°11' E 012°06'0 0.0
2014-Aug-08 22:31N 54°11' E 012°06'0 0.0
2014-Aug-08 21:31N 54°11' E 012°06'0 0.0
2014-Aug-08 20:31N 54°11' E 012°06'0 0.0
2014-Aug-08 19:31N 54°11' E 012°06'0 0.0
2014-Aug-08 18:31N 54°11' E 012°06'0 0.0
2014-Aug-08 17:31N 54°11' E 012°06'0 0.0
2014-Aug-08 16:31N 54°11' E 012°06'0 0.0
2014-Aug-08 15:31N 54°11' E 012°06'0 0.0
2014-Aug-08 14:31N 54°11' E 012°06'0 0.0
2014-Aug-08 13:31N 54°11' E 012°06'0 0.0
2014-Aug-08 12:31N 54°11' E 012°06'0 0.0
2014-Aug-08 11:31N 54°11' E 012°06'0 0.0
2014-Aug-08 10:31N 54°11' E 012°06'0 0.0
2014-Aug-08 09:31N 54°11' E 012°06'0 0.0
2014-Aug-08 08:31N 54°11' E 012°06'0 0.0
2014-Aug-08 07:31N 54°11' E 012°06'0 0.0
2014-Aug-08 06:31N 54°11' E 012°06'0 0.0
2014-Aug-08 05:31N 54°11' E 012°06'0 0.0
2014-Aug-08 04:31N 54°11' E 012°06'0 0.0
2014-Aug-08 03:31N 54°11' E 012°06'0 0.0
2014-Aug-08 02:25N 54°11' E 012°06'0 0.0
2014-Aug-08 01:31N 54°11' E 012°06'0 0.0
2014-Aug-08 00:31N 54°11' E 012°06'0 0.0
2014-Aug-07 23:31N 54°11' E 012°05'0 0.0
2014-Aug-07 22:31N 54°11' E 012°06'0 0.0
2014-Aug-07 21:25N 54°11' E 012°06'0 0.0
2014-Aug-07 20:31N 54°11' E 012°06'0 0.0
2014-Aug-07 19:31N 54°11' E 012°05'0 0.0
2014-Aug-07 18:28N 54°11' E 012°06'0 0.0
2014-Aug-07 17:31N 54°11' E 012°06'0 0.0
2014-Aug-07 16:31N 54°11' E 012°06'0 0.0
2014-Aug-07 15:31N 54°11' E 012°06'0 0.0
2014-Aug-07 14:31N 54°11' E 012°06'0 0.0
2014-Aug-07 13:25N 54°11' E 012°06'0 0.0
2014-Aug-07 12:31N 54°11' E 012°06'0 0.0
2014-Aug-07 10:31N 54°11' E 012°06'0 0.0
2014-Aug-07 09:31N 54°11' E 012°06'0 0.0
2014-Aug-07 08:31N 54°11' E 012°06'0 0.0
2014-Aug-07 07:31N 54°11' E 012°06'0 0.0
2014-Aug-07 06:31N 54°11' E 012°05'0 0.0
2014-Aug-07 05:28N 54°11' E 012°05'0 0.0
2014-Aug-07 04:31N 54°11' E 012°06'0 0.0
2014-Aug-07 03:31N 54°11' E 012°06'0 0.0
2014-Aug-07 02:31N 54°11' E 012°06'0 0.0
2014-Aug-07 01:28N 54°11' E 012°06'0 0.0
2014-Aug-07 00:31N 54°11' E 012°06'0 0.0
2014-Aug-06 23:31N 54°11' E 012°05'0 0.0
2014-Aug-06 22:31N 54°11' E 012°06'0 0.0
2014-Aug-06 21:31N 54°11' E 012°06'0 0.0
2014-Aug-06 20:25N 54°11' E 012°06'0 0.0
2014-Aug-06 19:31N 54°11' E 012°06'0 0.0
2014-Aug-06 18:31N 54°11' E 012°06'0 0.0
2014-Aug-06 17:31N 54°11' E 012°06'0 0.0
2014-Aug-06 16:28N 54°11' E 012°06'0 0.0
2014-Aug-06 15:31N 54°11' E 012°06'0 0.0
2014-Aug-06 14:25N 54°11' E 012°06'0 0.0
2014-Aug-06 13:28N 54°11' E 012°06'0 0.0
2014-Aug-06 12:31N 54°11' E 012°06'0 0.0
2014-Aug-06 11:31N 54°11' E 012°05'0 0.0
2014-Aug-06 10:25N 54°11' E 012°06'0 0.0
2014-Aug-06 09:31N 54°11' E 012°06'0 0.0
2014-Aug-06 08:31N 54°11' E 012°06'0 0.0
2014-Aug-06 07:31N 54°11' E 012°06'0 0.0
2014-Aug-06 06:31N 54°11' E 012°06'0 0.0
2014-Aug-06 05:31N 54°11' E 012°06'0 0.0
2014-Aug-06 04:31N 54°11' E 012°06'0 0.0
2014-Aug-06 03:31N 54°11' E 012°06'0 0.0
2014-Aug-06 02:28N 54°11' E 012°06'0 0.0
2014-Aug-06 01:28N 54°11' E 012°06'0 0.0
2014-Aug-06 00:31N 54°11' E 012°06'0 0.0
2014-Aug-05 23:31N 54°11' E 012°06'0 0.0
2014-Aug-05 22:31N 54°11' E 012°06'0 0.0
2014-Aug-05 21:31N 54°11' E 012°06'0 0.0
2014-Aug-05 20:28N 54°11' E 012°06'0 0.0
2014-Aug-05 19:31N 54°11' E 012°06'0 0.0
2014-Aug-05 18:31N 54°11' E 012°06'0 0.0
2014-Aug-05 17:31N 54°11' E 012°06'0 0.3
2014-Aug-05 16:34N 54°10' E 012°06'5 5.2
2014-Aug-05 15:33N 54°14' E 011°60'9 9.3
2014-Aug-05 14:33N 54°19' E 011°46'57 1.8
2014-Aug-04 06:26N 54°21' E 010°09'0 0.0
2014-Aug-04 02:29N 54°21' E 010°09'19 0.5
2014-Aug-02 13:33N 54°41' E 010°11'6 6.4
2014-Aug-02 12:33N 54°46' E 010°15'6 6.2
2014-Aug-02 11:33N 54°46' E 010°05'8 8.1
2014-Aug-02 10:33N 54°50' E 009°52'8 7.7
2014-Aug-02 09:33N 54°51' E 009°39'4 3.7
2014-Aug-02 08:33N 54°52' E 009°33'  

Dump ship's entire track history